TAFOR
Diposting tanggal: 30 Agustus 2018

Pukul :

Isi :

TAF WAGI 200500Z 2006/2018 00000KT 9000 BK011 TEMPO 2006/2009 3000 TSRA FEW011CB BKN011=